sensor_id;sensor_type;location;lat;lon;timestamp;temperature;humidity
78571;SHT31;67861;51.966;5.672;2023-09-19T00:00:56;19.6;62.7
78571;SHT31;67861;51.966;5.672;2023-09-19T00:03:26;19.6;62.5
78571;SHT31;67861;51.966;5.672;2023-09-19T00:05:55;19.6;62.7
78571;SHT31;67861;51.966;5.672;2023-09-19T00:08:28;19.6;63.0
78571;SHT31;67861;51.966;5.672;2023-09-19T00:10:57;19.6;63.4
78571;SHT31;67861;51.966;5.672;2023-09-19T00:13:31;19.6;63.5
78571;SHT31;67861;51.966;5.672;2023-09-19T00:16:00;19.5;63.5
78571;SHT31;67861;51.966;5.672;2023-09-19T00:18:30;19.5;63.6
78571;SHT31;67861;51.966;5.672;2023-09-19T00:21:01;19.5;63.7
78571;SHT31;67861;51.966;5.672;2023-09-19T00:23:31;19.5;63.6
78571;SHT31;67861;51.966;5.672;2023-09-19T00:26:00;19.5;64.0
78571;SHT31;67861;51.966;5.672;2023-09-19T00:28:30;19.5;64.1
78571;SHT31;67861;51.966;5.672;2023-09-19T00:30:59;19.5;63.8
78571;SHT31;67861;51.966;5.672;2023-09-19T00:33:29;19.5;64.1
78571;SHT31;67861;51.966;5.672;2023-09-19T00:35:57;19.5;64.2
78571;SHT31;67861;51.966;5.672;2023-09-19T00:38:28;19.5;64.4
78571;SHT31;67861;51.966;5.672;2023-09-19T00:40:58;19.5;64.3
78571;SHT31;67861;51.966;5.672;2023-09-19T00:43:27;19.5;64.6
78571;SHT31;67861;51.966;5.672;2023-09-19T00:46:00;19.5;64.8
78571;SHT31;67861;51.966;5.672;2023-09-19T00:48:30;19.5;65.0
78571;SHT31;67861;51.966;5.672;2023-09-19T00:51:02;19.5;65.1
78571;SHT31;67861;51.966;5.672;2023-09-19T00:53:33;19.5;64.9
78571;SHT31;67861;51.966;5.672;2023-09-19T00:56:03;19.5;64.9
78571;SHT31;67861;51.966;5.672;2023-09-19T00:58:34;19.5;64.8
78571;SHT31;67861;51.966;5.672;2023-09-19T01:01:05;19.5;65.0
78571;SHT31;67861;51.966;5.672;2023-09-19T01:03:34;19.5;65.3
78571;SHT31;67861;51.966;5.672;2023-09-19T01:06:03;19.4;65.0
78571;SHT31;67861;51.966;5.672;2023-09-19T01:08:31;19.4;64.9
78571;SHT31;67861;51.966;5.672;2023-09-19T01:11:11;19.4;65.4
78571;SHT31;67861;51.966;5.672;2023-09-19T01:13:50;19.4;65.1
78571;SHT31;67861;51.966;5.672;2023-09-19T01:16:35;19.4;65.2
78571;SHT31;67861;51.966;5.672;2023-09-19T01:19:23;19.4;65.1
78571;SHT31;67861;51.966;5.672;2023-09-19T01:22:00;19.4;64.8
78571;SHT31;67861;51.966;5.672;2023-09-19T01:24:50;19.4;64.8
78571;SHT31;67861;51.966;5.672;2023-09-19T01:27:43;19.4;64.5
78571;SHT31;67861;51.966;5.672;2023-09-19T01:30:14;19.3;64.7
78571;SHT31;67861;51.966;5.672;2023-09-19T01:32:45;19.3;64.3
78571;SHT31;67861;51.966;5.672;2023-09-19T01:35:16;19.3;63.8
78571;SHT31;67861;51.966;5.672;2023-09-19T01:37:45;19.3;64.2
78571;SHT31;67861;51.966;5.672;2023-09-19T01:40:17;19.3;64.1
78571;SHT31;67861;51.966;5.672;2023-09-19T01:42:53;19.3;63.7
78571;SHT31;67861;51.966;5.672;2023-09-19T01:45:33;19.3;63.5
78571;SHT31;67861;51.966;5.672;2023-09-19T01:48:13;19.3;63.7
78571;SHT31;67861;51.966;5.672;2023-09-19T01:50:54;19.3;63.5
78571;SHT31;67861;51.966;5.672;2023-09-19T01:53:27;19.2;62.9
78571;SHT31;67861;51.966;5.672;2023-09-19T01:55:57;19.2;62.5
78571;SHT31;67861;51.966;5.672;2023-09-19T01:58:34;19.2;62.3
78571;SHT31;67861;51.966;5.672;2023-09-19T02:01:04;19.2;62.2
78571;SHT31;67861;51.966;5.672;2023-09-19T02:03:35;19.2;61.7
78571;SHT31;67861;51.966;5.672;2023-09-19T02:06:04;19.1;62.1
78571;SHT31;67861;51.966;5.672;2023-09-19T02:08:37;19.1;62.1
78571;SHT31;67861;51.966;5.672;2023-09-19T02:11:06;19.1;61.8
78571;SHT31;67861;51.966;5.672;2023-09-19T02:13:34;19.1;62.2
78571;SHT31;67861;51.966;5.672;2023-09-19T02:16:04;19.0;61.5
78571;SHT31;67861;51.966;5.672;2023-09-19T02:18:33;19.0;61.8
78571;SHT31;67861;51.966;5.672;2023-09-19T02:21:02;19.0;61.7
78571;SHT31;67861;51.966;5.672;2023-09-19T02:23:33;19.0;61.3
78571;SHT31;67861;51.966;5.672;2023-09-19T02:26:02;18.9;61.3
78571;SHT31;67861;51.966;5.672;2023-09-19T02:28:31;18.9;60.9
78571;SHT31;67861;51.966;5.672;2023-09-19T02:31:00;18.9;61.1
78571;SHT31;67861;51.966;5.672;2023-09-19T02:33:31;18.9;60.8
78571;SHT31;67861;51.966;5.672;2023-09-19T02:36:02;18.8;60.7
78571;SHT31;67861;51.966;5.672;2023-09-19T02:38:31;18.8;60.8
78571;SHT31;67861;51.966;5.672;2023-09-19T02:41:01;18.8;60.9
78571;SHT31;67861;51.966;5.672;2023-09-19T02:43:31;18.8;60.7
78571;SHT31;67861;51.966;5.672;2023-09-19T02:45:59;18.7;60.7
78571;SHT31;67861;51.966;5.672;2023-09-19T02:48:29;18.7;60.2
78571;SHT31;67861;51.966;5.672;2023-09-19T02:50:58;18.7;60.2
78571;SHT31;67861;51.966;5.672;2023-09-19T02:53:27;18.7;60.3
78571;SHT31;67861;51.966;5.672;2023-09-19T02:55:57;18.6;60.5
78571;SHT31;67861;51.966;5.672;2023-09-19T02:58:25;18.6;60.4
78571;SHT31;67861;51.966;5.672;2023-09-19T03:00:56;18.6;60.7
78571;SHT31;67861;51.966;5.672;2023-09-19T03:03:25;18.6;60.3
78571;SHT31;67861;51.966;5.672;2023-09-19T03:05:55;18.6;60.3
78571;SHT31;67861;51.966;5.672;2023-09-19T03:08:26;18.5;60.2
78571;SHT31;67861;51.966;5.672;2023-09-19T03:10:55;18.5;60.3
78571;SHT31;67861;51.966;5.672;2023-09-19T03:13:23;18.5;60.1
78571;SHT31;67861;51.966;5.672;2023-09-19T03:15:54;18.5;60.0
78571;SHT31;67861;51.966;5.672;2023-09-19T03:18:24;18.5;59.7
78571;SHT31;67861;51.966;5.672;2023-09-19T03:20:56;18.5;59.4
78571;SHT31;67861;51.966;5.672;2023-09-19T03:23:26;18.5;59.7
78571;SHT31;67861;51.966;5.672;2023-09-19T03:25:55;18.4;58.8
78571;SHT31;67861;51.966;5.672;2023-09-19T03:28:25;18.4;58.7
78571;SHT31;67861;51.966;5.672;2023-09-19T03:31:00;18.4;58.6
78571;SHT31;67861;51.966;5.672;2023-09-19T03:33:29;18.4;58.5
78571;SHT31;67861;51.966;5.672;2023-09-19T03:36:00;18.3;58.3
78571;SHT31;67861;51.966;5.672;2023-09-19T03:38:31;18.3;58.1
78571;SHT31;67861;51.966;5.672;2023-09-19T03:41:00;18.3;57.9
78571;SHT31;67861;51.966;5.672;2023-09-19T03:43:29;18.3;57.6
78571;SHT31;67861;51.966;5.672;2023-09-19T03:46:01;18.2;57.9
78571;SHT31;67861;51.966;5.672;2023-09-19T03:48:30;18.2;57.9
78571;SHT31;67861;51.966;5.672;2023-09-19T03:50:59;18.2;57.8
78571;SHT31;67861;51.966;5.672;2023-09-19T03:53:28;18.2;58.3
78571;SHT31;67861;51.966;5.672;2023-09-19T03:55:57;18.1;58.2
78571;SHT31;67861;51.966;5.672;2023-09-19T03:58:26;18.1;58.0
78571;SHT31;67861;51.966;5.672;2023-09-19T04:00:56;18.1;57.9
78571;SHT31;67861;51.966;5.672;2023-09-19T04:03:27;18.0;58.2
78571;SHT31;67861;51.966;5.672;2023-09-19T04:06:01;18.0;58.4
78571;SHT31;67861;51.966;5.672;2023-09-19T04:08:29;18.0;58.0
78571;SHT31;67861;51.966;5.672;2023-09-19T04:10:58;18.0;57.9
78571;SHT31;67861;51.966;5.672;2023-09-19T04:13:30;18.0;57.8
78571;SHT31;67861;51.966;5.672;2023-09-19T04:15:58;17.9;58.5
78571;SHT31;67861;51.966;5.672;2023-09-19T04:18:27;17.9;58.3
78571;SHT31;67861;51.966;5.672;2023-09-19T04:20:57;17.9;57.9
78571;SHT31;67861;51.966;5.672;2023-09-19T04:23:27;17.9;58.0
78571;SHT31;67861;51.966;5.672;2023-09-19T04:25:56;17.9;58.2
78571;SHT31;67861;51.966;5.672;2023-09-19T04:28:25;17.8;58.0
78571;SHT31;67861;51.966;5.672;2023-09-19T04:30:54;17.8;58.1
78571;SHT31;67861;51.966;5.672;2023-09-19T04:33:24;17.8;58.2
78571;SHT31;67861;51.966;5.672;2023-09-19T04:35:53;17.8;58.1
78571;SHT31;67861;51.966;5.672;2023-09-19T04:38:22;17.8;58.1
78571;SHT31;67861;51.966;5.672;2023-09-19T04:40:58;17.8;58.2
78571;SHT31;67861;51.966;5.672;2023-09-19T04:43:27;17.8;58.3
78571;SHT31;67861;51.966;5.672;2023-09-19T04:45:55;17.8;58.5
78571;SHT31;67861;51.966;5.672;2023-09-19T04:48:26;17.8;58.3
78571;SHT31;67861;51.966;5.672;2023-09-19T04:50:55;17.7;58.3
78571;SHT31;67861;51.966;5.672;2023-09-19T04:53:26;17.7;58.5
78571;SHT31;67861;51.966;5.672;2023-09-19T04:55:54;17.7;59.2
78571;SHT31;67861;51.966;5.672;2023-09-19T04:58:24;17.7;58.8
78571;SHT31;67861;51.966;5.672;2023-09-19T05:00:52;17.7;58.8
78571;SHT31;67861;51.966;5.672;2023-09-19T05:03:21;17.7;59.0
78571;SHT31;67861;51.966;5.672;2023-09-19T05:05:50;17.7;58.9
78571;SHT31;67861;51.966;5.672;2023-09-19T05:08:18;17.7;59.4
78571;SHT31;67861;51.966;5.672;2023-09-19T05:10:48;17.7;59.2
78571;SHT31;67861;51.966;5.672;2023-09-19T05:13:17;17.7;59.4
78571;SHT31;67861;51.966;5.672;2023-09-19T05:15:45;17.6;59.4
78571;SHT31;67861;51.966;5.672;2023-09-19T05:18:13;17.6;59.6
78571;SHT31;67861;51.966;5.672;2023-09-19T05:20:42;17.6;59.6
78571;SHT31;67861;51.966;5.672;2023-09-19T05:23:10;17.6;59.7
78571;SHT31;67861;51.966;5.672;2023-09-19T05:25:40;17.6;59.6
78571;SHT31;67861;51.966;5.672;2023-09-19T05:28:10;17.6;60.0
78571;SHT31;67861;51.966;5.672;2023-09-19T05:30:43;17.6;59.9
78571;SHT31;67861;51.966;5.672;2023-09-19T05:33:12;17.6;60.1
78571;SHT31;67861;51.966;5.672;2023-09-19T05:35:41;17.6;60.0
78571;SHT31;67861;51.966;5.672;2023-09-19T05:38:09;17.6;60.1
78571;SHT31;67861;51.966;5.672;2023-09-19T05:40:41;17.6;60.4
78571;SHT31;67861;51.966;5.672;2023-09-19T05:43:13;17.6;60.4
78571;SHT31;67861;51.966;5.672;2023-09-19T05:45:42;17.6;60.5
78571;SHT31;67861;51.966;5.672;2023-09-19T05:48:12;17.6;60.1
78571;SHT31;67861;51.966;5.672;2023-09-19T05:50:43;17.6;60.7
78571;SHT31;67861;51.966;5.672;2023-09-19T05:53:15;17.6;61.1
78571;SHT31;67861;51.966;5.672;2023-09-19T05:55:45;17.6;60.6
78571;SHT31;67861;51.966;5.672;2023-09-19T05:58:13;17.6;61.1
78571;SHT31;67861;51.966;5.672;2023-09-19T06:00:43;17.6;61.0
78571;SHT31;67861;51.966;5.672;2023-09-19T06:03:14;17.6;61.3
78571;SHT31;67861;51.966;5.672;2023-09-19T06:05:44;17.6;61.3
78571;SHT31;67861;51.966;5.672;2023-09-19T06:08:15;17.6;61.5
78571;SHT31;67861;51.966;5.672;2023-09-19T06:10:44;17.6;61.5
78571;SHT31;67861;51.966;5.672;2023-09-19T06:13:13;17.7;61.7
78571;SHT31;67861;51.966;5.672;2023-09-19T06:15:41;17.7;61.9
78571;SHT31;67861;51.966;5.672;2023-09-19T06:18:14;17.7;61.9
78571;SHT31;67861;51.966;5.672;2023-09-19T06:20:48;17.7;61.9
78571;SHT31;67861;51.966;5.672;2023-09-19T06:23:18;17.7;62.1
78571;SHT31;67861;51.966;5.672;2023-09-19T06:25:47;17.7;62.2
78571;SHT31;67861;51.966;5.672;2023-09-19T06:28:15;17.7;62.3
78571;SHT31;67861;51.966;5.672;2023-09-19T06:30:50;17.7;62.4
78571;SHT31;67861;51.966;5.672;2023-09-19T06:33:20;17.7;62.6
78571;SHT31;67861;51.966;5.672;2023-09-19T06:35:49;17.8;62.7
78571;SHT31;67861;51.966;5.672;2023-09-19T06:38:23;17.8;62.4
78571;SHT31;67861;51.966;5.672;2023-09-19T06:40:53;17.8;62.8
78571;SHT31;67861;51.966;5.672;2023-09-19T06:43:21;17.8;63.1
78571;SHT31;67861;51.966;5.672;2023-09-19T06:45:50;17.8;63.3
78571;SHT31;67861;51.966;5.672;2023-09-19T06:48:21;17.9;63.2
78571;SHT31;67861;51.966;5.672;2023-09-19T06:50:52;17.9;63.5
78571;SHT31;67861;51.966;5.672;2023-09-19T06:53:21;17.9;63.4
78571;SHT31;67861;51.966;5.672;2023-09-19T06:55:51;17.9;63.5
78571;SHT31;67861;51.966;5.672;2023-09-19T06:58:20;17.9;63.7
78571;SHT31;67861;51.966;5.672;2023-09-19T07:00:49;18.0;63.6
78571;SHT31;67861;51.966;5.672;2023-09-19T07:03:18;18.0;63.7
78571;SHT31;67861;51.966;5.672;2023-09-19T07:05:48;18.0;63.5
78571;SHT31;67861;51.966;5.672;2023-09-19T07:08:17;18.1;63.3
78571;SHT31;67861;51.966;5.672;2023-09-19T07:10:46;18.1;63.2
78571;SHT31;67861;51.966;5.672;2023-09-19T07:13:19;18.2;62.9
78571;SHT31;67861;51.966;5.672;2023-09-19T07:15:47;18.2;63.1
78571;SHT31;67861;51.966;5.672;2023-09-19T07:18:17;18.2;63.0
78571;SHT31;67861;51.966;5.672;2023-09-19T07:20:47;18.2;62.9
78571;SHT31;67861;51.966;5.672;2023-09-19T07:23:20;18.2;63.2
78571;SHT31;67861;51.966;5.672;2023-09-19T07:25:50;18.2;63.2
78571;SHT31;67861;51.966;5.672;2023-09-19T07:28:19;18.3;63.1
78571;SHT31;67861;51.966;5.672;2023-09-19T07:30:47;18.3;62.9
78571;SHT31;67861;51.966;5.672;2023-09-19T07:33:16;18.3;63.0
78571;SHT31;67861;51.966;5.672;2023-09-19T07:35:47;18.4;63.2
78571;SHT31;67861;51.966;5.672;2023-09-19T07:38:16;18.4;63.1
78571;SHT31;67861;51.966;5.672;2023-09-19T07:40:45;18.4;63.1
78571;SHT31;67861;51.966;5.672;2023-09-19T07:43:13;18.4;63.1
78571;SHT31;67861;51.966;5.672;2023-09-19T07:45:42;18.5;63.1
78571;SHT31;67861;51.966;5.672;2023-09-19T07:48:10;18.5;62.7
78571;SHT31;67861;51.966;5.672;2023-09-19T07:50:40;18.5;62.9
78571;SHT31;67861;51.966;5.672;2023-09-19T07:53:09;18.5;63.3
78571;SHT31;67861;51.966;5.672;2023-09-19T07:55:39;18.6;63.3
78571;SHT31;67861;51.966;5.672;2023-09-19T07:58:08;18.6;63.4
78571;SHT31;67861;51.966;5.672;2023-09-19T08:00:37;18.6;62.9
78571;SHT31;67861;51.966;5.672;2023-09-19T08:03:06;18.7;63.5
78571;SHT31;67861;51.966;5.672;2023-09-19T08:05:35;18.7;63.0
78571;SHT31;67861;51.966;5.672;2023-09-19T08:08:07;18.7;63.0
78571;SHT31;67861;51.966;5.672;2023-09-19T08:10:35;18.8;62.5
78571;SHT31;67861;51.966;5.672;2023-09-19T08:13:06;18.8;62.9
78571;SHT31;67861;51.966;5.672;2023-09-19T08:15:44;18.8;62.7
78571;SHT31;67861;51.966;5.672;2023-09-19T08:18:14;18.8;62.9
78571;SHT31;67861;51.966;5.672;2023-09-19T08:20:42;18.9;62.7
78571;SHT31;67861;51.966;5.672;2023-09-19T08:23:12;18.9;63.6
78571;SHT31;67861;51.966;5.672;2023-09-19T08:25:40;18.9;63.4
78571;SHT31;67861;51.966;5.672;2023-09-19T08:28:09;19.0;63.5
78571;SHT31;67861;51.966;5.672;2023-09-19T08:30:38;19.0;63.3
78571;SHT31;67861;51.966;5.672;2023-09-19T08:33:07;19.1;63.1
78571;SHT31;67861;51.966;5.672;2023-09-19T08:35:37;19.1;62.7
78571;SHT31;67861;51.966;5.672;2023-09-19T08:38:08;19.1;62.5
78571;SHT31;67861;51.966;5.672;2023-09-19T08:40:38;19.2;62.5
78571;SHT31;67861;51.966;5.672;2023-09-19T08:43:09;19.2;62.7
78571;SHT31;67861;51.966;5.672;2023-09-19T08:45:37;19.3;62.9
78571;SHT31;67861;51.966;5.672;2023-09-19T08:48:22;19.3;62.5
78571;SHT31;67861;51.966;5.672;2023-09-19T08:50:55;19.4;62.1
78571;SHT31;67861;51.966;5.672;2023-09-19T08:53:42;19.4;62.5
78571;SHT31;67861;51.966;5.672;2023-09-19T08:56:12;19.5;61.8
78571;SHT31;67861;51.966;5.672;2023-09-19T08:58:48;19.5;62.0
78571;SHT31;67861;51.966;5.672;2023-09-19T09:01:20;19.5;62.1
78571;SHT31;67861;51.966;5.672;2023-09-19T09:03:53;19.6;62.5
78571;SHT31;67861;51.966;5.672;2023-09-19T09:06:23;19.6;62.6
78571;SHT31;67861;51.966;5.672;2023-09-19T09:08:52;19.7;62.3
78571;SHT31;67861;51.966;5.672;2023-09-19T09:11:21;19.8;62.5
78571;SHT31;67861;51.966;5.672;2023-09-19T09:13:51;19.8;61.8
78571;SHT31;67861;51.966;5.672;2023-09-19T09:16:20;19.9;60.9
78571;SHT31;67861;51.966;5.672;2023-09-19T09:18:52;20.0;60.5
78571;SHT31;67861;51.966;5.672;2023-09-19T09:21:22;20.0;60.4
78571;SHT31;67861;51.966;5.672;2023-09-19T09:23:56;20.1;60.9
78571;SHT31;67861;51.966;5.672;2023-09-19T09:26:42;20.2;60.1
78571;SHT31;67861;51.966;5.672;2023-09-19T09:29:11;20.3;59.8
78571;SHT31;67861;51.966;5.672;2023-09-19T09:31:39;20.4;58.3
78571;SHT31;67861;51.966;5.672;2023-09-19T09:34:10;20.5;57.6
78571;SHT31;67861;51.966;5.672;2023-09-19T09:36:40;20.6;58.1
78571;SHT31;67861;51.966;5.672;2023-09-19T09:39:13;20.6;59.2
78571;SHT31;67861;51.966;5.672;2023-09-19T09:41:51;20.7;58.3
78571;SHT31;67861;51.966;5.672;2023-09-19T09:44:19;20.8;58.2
78571;SHT31;67861;51.966;5.672;2023-09-19T09:46:48;20.9;58.1
78571;SHT31;67861;51.966;5.672;2023-09-19T09:49:57;21.1;56.9
78571;SHT31;67861;51.966;5.672;2023-09-19T09:52:30;21.2;56.3
78571;SHT31;67861;51.966;5.672;2023-09-19T09:55:04;21.3;55.5
78571;SHT31;67861;51.966;5.672;2023-09-19T09:57:34;21.4;55.2
78571;SHT31;67861;51.966;5.672;2023-09-19T10:00:07;21.4;55.8
78571;SHT31;67861;51.966;5.672;2023-09-19T10:02:47;21.5;55.9
78571;SHT31;67861;51.966;5.672;2023-09-19T10:05:18;21.6;55.9
78571;SHT31;67861;51.966;5.672;2023-09-19T10:07:55;21.7;55.5
78571;SHT31;67861;51.966;5.672;2023-09-19T10:10:31;21.8;54.1
78571;SHT31;67861;51.966;5.672;2023-09-19T10:13:10;21.8;53.5
78571;SHT31;67861;51.966;5.672;2023-09-19T10:15:42;21.9;54.2
78571;SHT31;67861;51.966;5.672;2023-09-19T10:18:20;21.9;54.6
78571;SHT31;67861;51.966;5.672;2023-09-19T10:20:50;22.0;53.1
78571;SHT31;67861;51.966;5.672;2023-09-19T10:23:20;22.0;54.4
78571;SHT31;67861;51.966;5.672;2023-09-19T10:25:50;22.1;53.3
78571;SHT31;67861;51.966;5.672;2023-09-19T10:28:20;22.1;53.5
78571;SHT31;67861;51.966;5.672;2023-09-19T10:30:51;22.2;53.5
78571;SHT31;67861;51.966;5.672;2023-09-19T10:33:22;22.2;52.5
78571;SHT31;67861;51.966;5.672;2023-09-19T10:35:53;22.3;52.0
78571;SHT31;67861;51.966;5.672;2023-09-19T10:38:24;22.3;53.2
78571;SHT31;67861;51.966;5.672;2023-09-19T10:40:55;22.4;54.0
78571;SHT31;67861;51.966;5.672;2023-09-19T10:43:31;22.4;53.2
78571;SHT31;67861;51.966;5.672;2023-09-19T10:46:07;22.5;52.5
78571;SHT31;67861;51.966;5.672;2023-09-19T10:48:39;22.5;52.0
78571;SHT31;67861;51.966;5.672;2023-09-19T10:51:12;22.5;52.6
78571;SHT31;67861;51.966;5.672;2023-09-19T10:53:48;22.6;52.7
78571;SHT31;67861;51.966;5.672;2023-09-19T10:56:24;22.6;52.2
78571;SHT31;67861;51.966;5.672;2023-09-19T10:59:07;22.7;52.2
78571;SHT31;67861;51.966;5.672;2023-09-19T11:01:45;22.7;52.4
78571;SHT31;67861;51.966;5.672;2023-09-19T11:04:28;22.7;52.3
78571;SHT31;67861;51.966;5.672;2023-09-19T11:07:03;22.8;51.2
78571;SHT31;67861;51.966;5.672;2023-09-19T11:09:45;22.8;51.6
78571;SHT31;67861;51.966;5.672;2023-09-19T11:12:49;22.9;51.3
78571;SHT31;67861;51.966;5.672;2023-09-19T11:18:58;22.9;51.4
78571;SHT31;67861;51.966;5.672;2023-09-19T11:21:55;23.0;51.4
78571;SHT31;67861;51.966;5.672;2023-09-19T11:24:32;23.0;51.4
78571;SHT31;67861;51.966;5.672;2023-09-19T11:27:16;23.0;51.1
78571;SHT31;67861;51.966;5.672;2023-09-19T11:29:46;23.0;50.8
78571;SHT31;67861;51.966;5.672;2023-09-19T11:32:15;23.1;50.5
78571;SHT31;67861;51.966;5.672;2023-09-19T11:34:49;23.1;50.5
78571;SHT31;67861;51.966;5.672;2023-09-19T11:41:40;23.1;50.5
78571;SHT31;67861;51.966;5.672;2023-09-19T11:44:35;23.1;51.5
78571;SHT31;67861;51.966;5.672;2023-09-19T11:47:12;23.1;51.0
78571;SHT31;67861;51.966;5.672;2023-09-19T11:49:42;23.2;51.2
78571;SHT31;67861;51.966;5.672;2023-09-19T11:52:23;23.2;49.5
78571;SHT31;67861;51.966;5.672;2023-09-19T11:54:56;23.3;50.7
78571;SHT31;67861;51.966;5.672;2023-09-19T11:57:26;23.3;51.3
78571;SHT31;67861;51.966;5.672;2023-09-19T11:59:59;23.3;50.4
78571;SHT31;67861;51.966;5.672;2023-09-19T12:02:39;23.4;50.2
78571;SHT31;67861;51.966;5.672;2023-09-19T12:05:09;23.4;49.8
78571;SHT31;67861;51.966;5.672;2023-09-19T12:07:44;23.4;49.1
78571;SHT31;67861;51.966;5.672;2023-09-19T12:10:15;23.5;49.5
78571;SHT31;67861;51.966;5.672;2023-09-19T12:12:48;23.5;48.8
78571;SHT31;67861;51.966;5.672;2023-09-19T12:15:24;23.5;48.7
78571;SHT31;67861;51.966;5.672;2023-09-19T12:17:55;23.5;48.2
78571;SHT31;67861;51.966;5.672;2023-09-19T12:20:24;23.5;48.7
78571;SHT31;67861;51.966;5.672;2023-09-19T12:22:53;23.5;48.4
78571;SHT31;67861;51.966;5.672;2023-09-19T12:25:21;23.5;48.6
78571;SHT31;67861;51.966;5.672;2023-09-19T12:27:51;23.5;47.8
78571;SHT31;67861;51.966;5.672;2023-09-19T12:30:28;23.4;47.7
78571;SHT31;67861;51.966;5.672;2023-09-19T12:33:00;23.4;48.1
78571;SHT31;67861;51.966;5.672;2023-09-19T12:35:31;23.3;47.8
78571;SHT31;67861;51.966;5.672;2023-09-19T12:38:01;23.3;48.3
78571;SHT31;67861;51.966;5.672;2023-09-19T12:40:30;23.2;48.3
78571;SHT31;67861;51.966;5.672;2023-09-19T12:43:00;23.2;48.3
78571;SHT31;67861;51.966;5.672;2023-09-19T12:45:32;23.1;48.2
78571;SHT31;67861;51.966;5.672;2023-09-19T12:48:23;23.0;48.6
78571;SHT31;67861;51.966;5.672;2023-09-19T12:51:02;23.0;49.2
78571;SHT31;67861;51.966;5.672;2023-09-19T12:53:32;22.9;49.2
78571;SHT31;67861;51.966;5.672;2023-09-19T12:56:07;22.9;49.5
78571;SHT31;67861;51.966;5.672;2023-09-19T12:58:52;22.8;49.6
78571;SHT31;67861;51.966;5.672;2023-09-19T13:01:23;22.8;49.9
78571;SHT31;67861;51.966;5.672;2023-09-19T13:04:13;22.8;49.9
78571;SHT31;67861;51.966;5.672;2023-09-19T13:06:44;22.7;50.6
78571;SHT31;67861;51.966;5.672;2023-09-19T13:09:15;22.7;50.4
78571;SHT31;67861;51.966;5.672;2023-09-19T13:11:44;22.7;50.9
78571;SHT31;67861;51.966;5.672;2023-09-19T13:14:16;22.6;51.0
78571;SHT31;67861;51.966;5.672;2023-09-19T13:16:58;22.6;50.4
78571;SHT31;67861;51.966;5.672;2023-09-19T13:19:40;22.6;50.3
78571;SHT31;67861;51.966;5.672;2023-09-19T13:22:37;22.6;50.8
78571;SHT31;67861;51.966;5.672;2023-09-19T13:25:11;22.5;51.0
78571;SHT31;67861;51.966;5.672;2023-09-19T13:27:44;22.5;50.9
78571;SHT31;67861;51.966;5.672;2023-09-19T13:30:16;22.5;51.3
78571;SHT31;67861;51.966;5.672;2023-09-19T13:32:45;22.5;51.5
78571;SHT31;67861;51.966;5.672;2023-09-19T13:35:20;22.4;51.1
78571;SHT31;67861;51.966;5.672;2023-09-19T13:37:48;22.4;51.6
78571;SHT31;67861;51.966;5.672;2023-09-19T13:40:18;22.4;51.7
78571;SHT31;67861;51.966;5.672;2023-09-19T13:42:46;22.4;51.8
78571;SHT31;67861;51.966;5.672;2023-09-19T13:45:16;22.4;51.7
78571;SHT31;67861;51.966;5.672;2023-09-19T13:47:50;22.4;51.8
78571;SHT31;67861;51.966;5.672;2023-09-19T13:50:20;22.4;52.1
78571;SHT31;67861;51.966;5.672;2023-09-19T13:52:50;22.3;52.2
78571;SHT31;67861;51.966;5.672;2023-09-19T13:55:20;22.3;52.1
78571;SHT31;67861;51.966;5.672;2023-09-19T13:57:49;22.3;52.4
78571;SHT31;67861;51.966;5.672;2023-09-19T14:00:21;22.4;52.7
78571;SHT31;67861;51.966;5.672;2023-09-19T14:02:50;22.4;52.9
78571;SHT31;67861;51.966;5.672;2023-09-19T14:05:19;22.4;52.1
78571;SHT31;67861;51.966;5.672;2023-09-19T14:07:48;22.4;52.2
78571;SHT31;67861;51.966;5.672;2023-09-19T14:10:16;22.4;52.1
78571;SHT31;67861;51.966;5.672;2023-09-19T14:12:46;22.5;52.0
78571;SHT31;67861;51.966;5.672;2023-09-19T14:15:17;22.5;51.3
78571;SHT31;67861;51.966;5.672;2023-09-19T14:17:45;22.5;52.3
78571;SHT31;67861;51.966;5.672;2023-09-19T14:20:14;22.5;52.7
78571;SHT31;67861;51.966;5.672;2023-09-19T14:22:44;22.5;53.0
78571;SHT31;67861;51.966;5.672;2023-09-19T14:25:13;22.5;52.4
78571;SHT31;67861;51.966;5.672;2023-09-19T14:27:43;22.5;52.5
78571;SHT31;67861;51.966;5.672;2023-09-19T14:30:14;22.6;52.4
78571;SHT31;67861;51.966;5.672;2023-09-19T14:32:43;22.6;52.0
78571;SHT31;67861;51.966;5.672;2023-09-19T14:35:11;22.6;52.4
78571;SHT31;67861;51.966;5.672;2023-09-19T14:37:41;22.6;52.5
78571;SHT31;67861;51.966;5.672;2023-09-19T14:40:10;22.6;52.4
78571;SHT31;67861;51.966;5.672;2023-09-19T14:42:42;22.6;52.0
78571;SHT31;67861;51.966;5.672;2023-09-19T14:45:11;22.6;51.9
78571;SHT31;67861;51.966;5.672;2023-09-19T14:47:43;22.6;51.9
78571;SHT31;67861;51.966;5.672;2023-09-19T14:50:11;22.6;51.8
78571;SHT31;67861;51.966;5.672;2023-09-19T14:52:41;22.6;51.7
78571;SHT31;67861;51.966;5.672;2023-09-19T14:55:10;22.6;51.6
78571;SHT31;67861;51.966;5.672;2023-09-19T14:57:40;22.5;51.8
78571;SHT31;67861;51.966;5.672;2023-09-19T15:00:13;22.5;51.8
78571;SHT31;67861;51.966;5.672;2023-09-19T15:02:44;22.5;51.7
78571;SHT31;67861;51.966;5.672;2023-09-19T15:05:18;22.5;52.0
78571;SHT31;67861;51.966;5.672;2023-09-19T15:07:46;22.5;51.9
78571;SHT31;67861;51.966;5.672;2023-09-19T15:10:17;22.4;51.9
78571;SHT31;67861;51.966;5.672;2023-09-19T15:12:46;22.4;52.4
78571;SHT31;67861;51.966;5.672;2023-09-19T15:15:15;22.4;52.2
78571;SHT31;67861;51.966;5.672;2023-09-19T15:17:43;22.4;52.4
78571;SHT31;67861;51.966;5.672;2023-09-19T15:20:15;22.4;52.6
78571;SHT31;67861;51.966;5.672;2023-09-19T15:22:44;22.4;52.7
78571;SHT31;67861;51.966;5.672;2023-09-19T15:25:12;22.3;52.3
78571;SHT31;67861;51.966;5.672;2023-09-19T15:27:42;22.3;52.5
78571;SHT31;67861;51.966;5.672;2023-09-19T15:30:12;22.3;52.6
78571;SHT31;67861;51.966;5.672;2023-09-19T15:32:41;22.3;52.7
78571;SHT31;67861;51.966;5.672;2023-09-19T15:35:10;22.3;53.0
78571;SHT31;67861;51.966;5.672;2023-09-19T15:37:40;22.3;53.1
78571;SHT31;67861;51.966;5.672;2023-09-19T15:40:11;22.2;53.1
78571;SHT31;67861;51.966;5.672;2023-09-19T15:42:40;22.2;53.2
78571;SHT31;67861;51.966;5.672;2023-09-19T15:45:09;22.2;53.0
78571;SHT31;67861;51.966;5.672;2023-09-19T15:47:38;22.2;53.3
78571;SHT31;67861;51.966;5.672;2023-09-19T15:50:07;22.2;53.3
78571;SHT31;67861;51.966;5.672;2023-09-19T15:52:39;22.2;53.4
78571;SHT31;67861;51.966;5.672;2023-09-19T15:55:09;22.2;53.3
78571;SHT31;67861;51.966;5.672;2023-09-19T15:57:41;22.1;54.0
78571;SHT31;67861;51.966;5.672;2023-09-19T16:00:10;22.1;54.1
78571;SHT31;67861;51.966;5.672;2023-09-19T16:02:45;22.1;54.0
78571;SHT31;67861;51.966;5.672;2023-09-19T16:05:16;22.1;54.0
78571;SHT31;67861;51.966;5.672;2023-09-19T16:07:45;22.1;53.9
78571;SHT31;67861;51.966;5.672;2023-09-19T16:10:13;22.1;53.9
78571;SHT31;67861;51.966;5.672;2023-09-19T16:12:42;22.1;53.9
78571;SHT31;67861;51.966;5.672;2023-09-19T16:15:10;22.1;54.1
78571;SHT31;67861;51.966;5.672;2023-09-19T16:17:41;22.1;54.0
78571;SHT31;67861;51.966;5.672;2023-09-19T16:20:10;22.1;54.5
78571;SHT31;67861;51.966;5.672;2023-09-19T16:22:38;22.1;54.7
78571;SHT31;67861;51.966;5.672;2023-09-19T16:25:07;22.0;54.7
78571;SHT31;67861;51.966;5.672;2023-09-19T16:27:38;22.0;54.4
78571;SHT31;67861;51.966;5.672;2023-09-19T16:30:09;22.0;54.3
78571;SHT31;67861;51.966;5.672;2023-09-19T16:32:40;22.0;54.3
78571;SHT31;67861;51.966;5.672;2023-09-19T16:35:08;22.0;54.2
78571;SHT31;67861;51.966;5.672;2023-09-19T16:37:38;22.0;54.5